sensor_id;sensor_type;location;lat;lon;timestamp;P1;durP1;ratioP1;P2;durP2;ratioP2
58972;SDS011;44750;52.040;7.472;2023-04-24T00:00:23;1.13;;;0.87;;
58972;SDS011;44750;52.040;7.472;2023-04-24T00:05:24;0.50;;;0.50;;
58972;SDS011;44750;52.040;7.472;2023-04-24T00:10:24;0.63;;;0.63;;
58972;SDS011;44750;52.040;7.472;2023-04-24T00:15:24;1.05;;;0.80;;
58972;SDS011;44750;52.040;7.472;2023-04-24T00:20:25;0.50;;;0.50;;
58972;SDS011;44750;52.040;7.472;2023-04-24T00:25:25;0.60;;;0.60;;
58972;SDS011;44750;52.040;7.472;2023-04-24T00:30:25;1.35;;;0.60;;
58972;SDS011;44750;52.040;7.472;2023-04-24T00:35:25;0.40;;;0.40;;
58972;SDS011;44750;52.040;7.472;2023-04-24T00:40:26;1.75;;;1.05;;
58972;SDS011;44750;52.040;7.472;2023-04-24T00:45:27;1.10;;;0.60;;
58972;SDS011;44750;52.040;7.472;2023-04-24T00:50:28;1.08;;;0.60;;
58972;SDS011;44750;52.040;7.472;2023-04-24T00:55:28;0.40;;;0.40;;
58972;SDS011;44750;52.040;7.472;2023-04-24T01:00:29;2.13;;;1.38;;
58972;SDS011;44750;52.040;7.472;2023-04-24T01:05:30;0.60;;;0.60;;
58972;SDS011;44750;52.040;7.472;2023-04-24T01:10:31;0.80;;;0.50;;
58972;SDS011;44750;52.040;7.472;2023-04-24T01:15:33;1.38;;;0.93;;
58972;SDS011;44750;52.040;7.472;2023-04-24T01:20:34;0.93;;;0.55;;
58972;SDS011;44750;52.040;7.472;2023-04-24T01:25:34;1.05;;;0.70;;
58972;SDS011;44750;52.040;7.472;2023-04-24T01:30:35;2.28;;;1.00;;
58972;SDS011;44750;52.040;7.472;2023-04-24T01:35:36;0.80;;;0.80;;
58972;SDS011;44750;52.040;7.472;2023-04-24T01:40:37;1.10;;;0.80;;
58972;SDS011;44750;52.040;7.472;2023-04-24T01:45:38;1.17;;;0.68;;
58972;SDS011;44750;52.040;7.472;2023-04-24T01:50:38;3.78;;;0.82;;
58972;SDS011;44750;52.040;7.472;2023-04-24T01:55:38;0.73;;;0.70;;
58972;SDS011;44750;52.040;7.472;2023-04-24T02:00:39;0.77;;;0.65;;
58972;SDS011;44750;52.040;7.472;2023-04-24T02:05:39;1.30;;;0.70;;
58972;SDS011;44750;52.040;7.472;2023-04-24T02:10:39;1.00;;;0.90;;
58972;SDS011;44750;52.040;7.472;2023-04-24T02:15:39;0.95;;;0.63;;
58972;SDS011;44750;52.040;7.472;2023-04-24T02:20:40;1.10;;;0.90;;
58972;SDS011;44750;52.040;7.472;2023-04-24T02:25:40;0.82;;;0.80;;
58972;SDS011;44750;52.040;7.472;2023-04-24T02:30:40;0.93;;;0.80;;
58972;SDS011;44750;52.040;7.472;2023-04-24T02:35:40;0.98;;;0.88;;
58972;SDS011;44750;52.040;7.472;2023-04-24T02:40:41;1.10;;;0.90;;
58972;SDS011;44750;52.040;7.472;2023-04-24T02:45:41;1.13;;;1.02;;
58972;SDS011;44750;52.040;7.472;2023-04-24T02:50:41;1.75;;;1.25;;
58972;SDS011;44750;52.040;7.472;2023-04-24T02:55:41;1.13;;;1.00;;
58972;SDS011;44750;52.040;7.472;2023-04-24T03:00:42;1.88;;;1.17;;
58972;SDS011;44750;52.040;7.472;2023-04-24T03:05:42;1.65;;;1.27;;
58972;SDS011;44750;52.040;7.472;2023-04-24T03:10:43;1.43;;;1.33;;
58972;SDS011;44750;52.040;7.472;2023-04-24T03:15:43;2.00;;;1.55;;
58972;SDS011;44750;52.040;7.472;2023-04-24T03:20:47;2.67;;;1.80;;
58972;SDS011;44750;52.040;7.472;2023-04-24T03:25:47;3.55;;;2.22;;
58972;SDS011;44750;52.040;7.472;2023-04-24T03:30:47;2.78;;;2.20;;
58972;SDS011;44750;52.040;7.472;2023-04-24T03:35:47;3.00;;;2.00;;
58972;SDS011;44750;52.040;7.472;2023-04-24T03:40:48;2.88;;;2.30;;
58972;SDS011;44750;52.040;7.472;2023-04-24T03:45:48;6.10;;;3.75;;
58972;SDS011;44750;52.040;7.472;2023-04-24T03:50:48;6.77;;;3.23;;
58972;SDS011;44750;52.040;7.472;2023-04-24T03:55:50;5.93;;;3.60;;
58972;SDS011;44750;52.040;7.472;2023-04-24T04:00:50;4.22;;;2.80;;
58972;SDS011;44750;52.040;7.472;2023-04-24T04:05:50;4.10;;;2.80;;
58972;SDS011;44750;52.040;7.472;2023-04-24T04:10:51;4.90;;;3.13;;
58972;SDS011;44750;52.040;7.472;2023-04-24T04:15:51;6.00;;;3.22;;
58972;SDS011;44750;52.040;7.472;2023-04-24T04:20:52;12.40;;;3.65;;
58972;SDS011;44750;52.040;7.472;2023-04-24T04:25:52;3.97;;;3.38;;
58972;SDS011;44750;52.040;7.472;2023-04-24T04:30:52;6.88;;;4.00;;
58972;SDS011;44750;52.040;7.472;2023-04-24T04:35:52;3.67;;;2.58;;
58972;SDS011;44750;52.040;7.472;2023-04-24T04:40:53;3.83;;;2.90;;
58972;SDS011;44750;52.040;7.472;2023-04-24T04:45:53;5.03;;;3.08;;
58972;SDS011;44750;52.040;7.472;2023-04-24T04:50:53;4.45;;;3.38;;
58972;SDS011;44750;52.040;7.472;2023-04-24T04:55:54;13.88;;;4.47;;
58972;SDS011;44750;52.040;7.472;2023-04-24T05:00:54;3.00;;;2.70;;
58972;SDS011;44750;52.040;7.472;2023-04-24T05:05:54;6.93;;;3.38;;
58972;SDS011;44750;52.040;7.472;2023-04-24T05:10:54;7.88;;;4.30;;
58972;SDS011;44750;52.040;7.472;2023-04-24T05:15:55;4.82;;;3.72;;
58972;SDS011;44750;52.040;7.472;2023-04-24T05:20:55;6.88;;;3.80;;
58972;SDS011;44750;52.040;7.472;2023-04-24T05:25:55;5.43;;;3.75;;
58972;SDS011;44750;52.040;7.472;2023-04-24T05:30:56;5.95;;;3.67;;
58972;SDS011;44750;52.040;7.472;2023-04-24T05:35:56;5.57;;;3.95;;
58972;SDS011;44750;52.040;7.472;2023-04-24T05:40:56;6.18;;;4.55;;
58972;SDS011;44750;52.040;7.472;2023-04-24T05:45:56;4.25;;;3.30;;
58972;SDS011;44750;52.040;7.472;2023-04-24T05:50:57;4.78;;;3.35;;
58972;SDS011;44750;52.040;7.472;2023-04-24T05:55:57;5.70;;;3.67;;
58972;SDS011;44750;52.040;7.472;2023-04-24T06:00:57;6.20;;;3.60;;
58972;SDS011;44750;52.040;7.472;2023-04-24T06:05:58;3.55;;;3.10;;
58972;SDS011;44750;52.040;7.472;2023-04-24T06:10:58;5.65;;;3.65;;
58972;SDS011;44750;52.040;7.472;2023-04-24T06:15:58;5.22;;;3.58;;
58972;SDS011;44750;52.040;7.472;2023-04-24T06:20:59;4.55;;;3.45;;
58972;SDS011;44750;52.040;7.472;2023-04-24T06:25:59;7.23;;;2.97;;
58972;SDS011;44750;52.040;7.472;2023-04-24T06:30:59;5.47;;;3.15;;
58972;SDS011;44750;52.040;7.472;2023-04-24T06:36:00;9.45;;;3.80;;
58972;SDS011;44750;52.040;7.472;2023-04-24T06:41:00;4.60;;;3.03;;
58972;SDS011;44750;52.040;7.472;2023-04-24T06:46:00;5.07;;;2.80;;
58972;SDS011;44750;52.040;7.472;2023-04-24T06:51:00;5.03;;;2.05;;
58972;SDS011;44750;52.040;7.472;2023-04-24T06:56:02;4.63;;;2.60;;
58972;SDS011;44750;52.040;7.472;2023-04-24T07:01:02;3.63;;;2.58;;
58972;SDS011;44750;52.040;7.472;2023-04-24T07:06:03;3.90;;;1.98;;
58972;SDS011;44750;52.040;7.472;2023-04-24T07:11:04;4.97;;;2.75;;
58972;SDS011;44750;52.040;7.472;2023-04-24T07:16:05;4.22;;;2.97;;
58972;SDS011;44750;52.040;7.472;2023-04-24T07:21:05;2.47;;;2.17;;
58972;SDS011;44750;52.040;7.472;2023-04-24T07:26:05;5.70;;;3.22;;
58972;SDS011;44750;52.040;7.472;2023-04-24T07:31:06;4.80;;;2.88;;
58972;SDS011;44750;52.040;7.472;2023-04-24T07:36:07;3.80;;;2.65;;
58972;SDS011;44750;52.040;7.472;2023-04-24T07:41:08;5.82;;;2.40;;
58972;SDS011;44750;52.040;7.472;2023-04-24T07:46:08;4.15;;;2.42;;
58972;SDS011;44750;52.040;7.472;2023-04-24T07:51:08;9.33;;;3.47;;
58972;SDS011;44750;52.040;7.472;2023-04-24T07:56:09;2.60;;;2.13;;
58972;SDS011;44750;52.040;7.472;2023-04-24T08:01:09;4.13;;;2.27;;
58972;SDS011;44750;52.040;7.472;2023-04-24T08:06:09;2.05;;;1.85;;
58972;SDS011;44750;52.040;7.472;2023-04-24T08:11:10;3.03;;;1.90;;
58972;SDS011;44750;52.040;7.472;2023-04-24T08:16:10;2.83;;;2.13;;
58972;SDS011;44750;52.040;7.472;2023-04-24T08:21:10;3.92;;;1.92;;
58972;SDS011;44750;52.040;7.472;2023-04-24T08:26:11;2.90;;;1.95;;
58972;SDS011;44750;52.040;7.472;2023-04-24T08:31:12;3.13;;;1.88;;
58972;SDS011;44750;52.040;7.472;2023-04-24T08:36:12;3.75;;;1.73;;
58972;SDS011;44750;52.040;7.472;2023-04-24T08:41:13;2.13;;;1.58;;
58972;SDS011;44750;52.040;7.472;2023-04-24T08:46:14;2.42;;;1.92;;
58972;SDS011;44750;52.040;7.472;2023-04-24T08:51:15;2.15;;;1.30;;
58972;SDS011;44750;52.040;7.472;2023-04-24T08:56:16;1.73;;;1.40;;
58972;SDS011;44750;52.040;7.472;2023-04-24T09:01:18;2.75;;;1.55;;
58972;SDS011;44750;52.040;7.472;2023-04-24T09:06:19;4.35;;;1.40;;
58972;SDS011;44750;52.040;7.472;2023-04-24T09:11:22;1.20;;;0.90;;
58972;SDS011;44750;52.040;7.472;2023-04-24T09:16:25;1.50;;;1.00;;
58972;SDS011;44750;52.040;7.472;2023-04-24T09:21:27;1.13;;;0.80;;
58972;SDS011;44750;52.040;7.472;2023-04-24T09:26:34;1.40;;;1.10;;
58972;SDS011;44750;52.040;7.472;2023-04-24T09:31:35;5.55;;;0.90;;
58972;SDS011;44750;52.040;7.472;2023-04-24T09:36:36;1.17;;;1.00;;
58972;SDS011;44750;52.040;7.472;2023-04-24T09:41:51;1.60;;;1.17;;
58972;SDS011;44750;52.040;7.472;2023-04-24T09:46:56;2.45;;;1.33;;
58972;SDS011;44750;52.040;7.472;2023-04-24T09:52:04;2.58;;;1.10;;
58972;SDS011;44750;52.040;7.472;2023-04-24T09:57:09;0.85;;;0.60;;
58972;SDS011;44750;52.040;7.472;2023-04-24T10:02:18;1.25;;;0.82;;
58972;SDS011;44750;52.040;7.472;2023-04-24T10:07:19;1.55;;;1.15;;
58972;SDS011;44750;52.040;7.472;2023-04-24T10:12:20;2.30;;;1.08;;
58972;SDS011;44750;52.040;7.472;2023-04-24T10:17:21;1.05;;;0.75;;
58972;SDS011;44750;52.040;7.472;2023-04-24T10:22:22;1.20;;;0.75;;
58972;SDS011;44750;52.040;7.472;2023-04-24T10:27:23;0.93;;;0.77;;
58972;SDS011;44750;52.040;7.472;2023-04-24T10:32:26;1.30;;;1.20;;
58972;SDS011;44750;52.040;7.472;2023-04-24T10:37:26;1.88;;;1.35;;
58972;SDS011;44750;52.040;7.472;2023-04-24T10:42:35;4.55;;;2.80;;
58972;SDS011;44750;52.040;7.472;2023-04-24T10:47:40;1.17;;;0.82;;
58972;SDS011;44750;52.040;7.472;2023-04-24T10:52:43;3.40;;;1.42;;
58972;SDS011;44750;52.040;7.472;2023-04-24T10:58:03;1.10;;;1.05;;
58972;SDS011;44750;52.040;7.472;2023-04-24T11:03:04;3.83;;;2.25;;
58972;SDS011;44750;52.040;7.472;2023-04-24T11:08:16;1.30;;;1.20;;
58972;SDS011;44750;52.040;7.472;2023-04-24T11:19:17;2.28;;;1.58;;
58972;SDS011;44750;52.040;7.472;2023-04-24T11:29:47;3.95;;;1.35;;
58972;SDS011;44750;52.040;7.472;2023-04-24T11:34:56;3.10;;;1.40;;
58972;SDS011;44750;52.040;7.472;2023-04-24T11:39:58;1.35;;;1.10;;
58972;SDS011;44750;52.040;7.472;2023-04-24T11:45:00;1.35;;;0.80;;
58972;SDS011;44750;52.040;7.472;2023-04-24T11:50:00;0.65;;;0.55;;
58972;SDS011;44750;52.040;7.472;2023-04-24T11:55:01;0.85;;;0.65;;
58972;SDS011;44750;52.040;7.472;2023-04-24T12:00:03;0.95;;;0.73;;
58972;SDS011;44750;52.040;7.472;2023-04-24T12:05:04;0.60;;;0.60;;
58972;SDS011;44750;52.040;7.472;2023-04-24T12:10:05;1.15;;;0.90;;
58972;SDS011;44750;52.040;7.472;2023-04-24T12:15:06;1.88;;;1.13;;
58972;SDS011;44750;52.040;7.472;2023-04-24T12:20:08;2.90;;;1.35;;
58972;SDS011;44750;52.040;7.472;2023-04-24T12:25:09;4.88;;;1.65;;
58972;SDS011;44750;52.040;7.472;2023-04-24T12:30:13;1.30;;;1.10;;
58972;SDS011;44750;52.040;7.472;2023-04-24T12:35:21;1.60;;;1.13;;
58972;SDS011;44750;52.040;7.472;2023-04-24T12:40:24;3.40;;;1.52;;
58972;SDS011;44750;52.040;7.472;2023-04-24T12:45:25;1.17;;;0.93;;
58972;SDS011;44750;52.040;7.472;2023-04-24T12:50:25;3.35;;;1.50;;
58972;SDS011;44750;52.040;7.472;2023-04-24T12:55:26;3.60;;;1.42;;
58972;SDS011;44750;52.040;7.472;2023-04-24T13:00:26;1.23;;;1.13;;
58972;SDS011;44750;52.040;7.472;2023-04-24T13:05:26;4.53;;;1.50;;
58972;SDS011;44750;52.040;7.472;2023-04-24T13:10:26;3.35;;;1.50;;
58972;SDS011;44750;52.040;7.472;2023-04-24T13:15:27;3.13;;;1.30;;
58972;SDS011;44750;52.040;7.472;2023-04-24T13:20:27;3.90;;;2.05;;
58972;SDS011;44750;52.040;7.472;2023-04-24T13:25:35;1.30;;;1.10;;
58972;SDS011;44750;52.040;7.472;2023-04-24T13:30:36;2.33;;;1.70;;
58972;SDS011;44750;52.040;7.472;2023-04-24T13:35:36;12.65;;;1.83;;
58972;SDS011;44750;52.040;7.472;2023-04-24T13:40:37;1.45;;;0.98;;
58972;SDS011;44750;52.040;7.472;2023-04-24T13:45:37;2.05;;;0.90;;
58972;SDS011;44750;52.040;7.472;2023-04-24T13:50:37;1.40;;;1.05;;
58972;SDS011;44750;52.040;7.472;2023-04-24T13:55:37;0.80;;;0.80;;
58972;SDS011;44750;52.040;7.472;2023-04-24T14:00:38;5.82;;;0.70;;
58972;SDS011;44750;52.040;7.472;2023-04-24T14:05:38;0.95;;;0.80;;
58972;SDS011;44750;52.040;7.472;2023-04-24T14:10:38;0.30;;;0.30;;
58972;SDS011;44750;52.040;7.472;2023-04-24T14:15:39;1.27;;;0.80;;
58972;SDS011;44750;52.040;7.472;2023-04-24T14:20:42;0.63;;;0.50;;
58972;SDS011;44750;52.040;7.472;2023-04-24T14:25:42;1.10;;;0.65;;
58972;SDS011;44750;52.040;7.472;2023-04-24T14:30:42;1.20;;;0.85;;
58972;SDS011;44750;52.040;7.472;2023-04-24T14:35:43;0.50;;;0.50;;
58972;SDS011;44750;52.040;7.472;2023-04-24T14:40:46;0.55;;;0.38;;
58972;SDS011;44750;52.040;7.472;2023-04-24T14:45:46;1.02;;;0.70;;
58972;SDS011;44750;52.040;7.472;2023-04-24T14:50:46;0.88;;;0.85;;
58972;SDS011;44750;52.040;7.472;2023-04-24T14:55:46;0.88;;;0.52;;
58972;SDS011;44750;52.040;7.472;2023-04-24T15:00:47;0.50;;;0.40;;
58972;SDS011;44750;52.040;7.472;2023-04-24T15:05:47;2.00;;;0.93;;
58972;SDS011;44750;52.040;7.472;2023-04-24T15:10:47;1.25;;;0.80;;
58972;SDS011;44750;52.040;7.472;2023-04-24T15:15:48;0.68;;;0.68;;
58972;SDS011;44750;52.040;7.472;2023-04-24T15:20:48;0.82;;;0.80;;
58972;SDS011;44750;52.040;7.472;2023-04-24T15:25:48;2.28;;;1.15;;
58972;SDS011;44750;52.040;7.472;2023-04-24T15:30:49;2.28;;;0.80;;
58972;SDS011;44750;52.040;7.472;2023-04-24T15:35:49;1.60;;;0.90;;
58972;SDS011;44750;52.040;7.472;2023-04-24T15:40:50;0.55;;;0.55;;
58972;SDS011;44750;52.040;7.472;2023-04-24T15:45:50;1.33;;;0.75;;
58972;SDS011;44750;52.040;7.472;2023-04-24T15:50:50;0.40;;;0.40;;
58972;SDS011;44750;52.040;7.472;2023-04-24T15:55:52;1.02;;;0.60;;
58972;SDS011;44750;52.040;7.472;2023-04-24T16:00:52;0.98;;;0.52;;
58972;SDS011;44750;52.040;7.472;2023-04-24T16:05:53;1.42;;;0.95;;
58972;SDS011;44750;52.040;7.472;2023-04-24T16:10:53;0.98;;;0.70;;
58972;SDS011;44750;52.040;7.472;2023-04-24T16:15:53;2.08;;;0.90;;
58972;SDS011;44750;52.040;7.472;2023-04-24T16:20:54;0.97;;;0.80;;
58972;SDS011;44750;52.040;7.472;2023-04-24T16:25:54;0.73;;;0.73;;
58972;SDS011;44750;52.040;7.472;2023-04-24T16:30:54;1.40;;;0.90;;
58972;SDS011;44750;52.040;7.472;2023-04-24T16:35:54;0.65;;;0.65;;
58972;SDS011;44750;52.040;7.472;2023-04-24T16:40:55;2.60;;;0.97;;
58972;SDS011;44750;52.040;7.472;2023-04-24T16:45:55;1.92;;;1.13;;
58972;SDS011;44750;52.040;7.472;2023-04-24T16:50:55;1.23;;;0.88;;
58972;SDS011;44750;52.040;7.472;2023-04-24T16:55:55;1.05;;;0.77;;
58972;SDS011;44750;52.040;7.472;2023-04-24T17:00:56;1.65;;;1.02;;
58972;SDS011;44750;52.040;7.472;2023-04-24T17:05:56;0.98;;;0.68;;
58972;SDS011;44750;52.040;7.472;2023-04-24T17:10:57;3.40;;;1.42;;
58972;SDS011;44750;52.040;7.472;2023-04-24T17:15:57;1.80;;;1.07;;
58972;SDS011;44750;52.040;7.472;2023-04-24T17:20:57;1.40;;;1.10;;
58972;SDS011;44750;52.040;7.472;2023-04-24T17:25:57;1.08;;;0.90;;
58972;SDS011;44750;52.040;7.472;2023-04-24T17:30:58;1.33;;;0.97;;
58972;SDS011;44750;52.040;7.472;2023-04-24T17:35:59;1.48;;;0.70;;
58972;SDS011;44750;52.040;7.472;2023-04-24T17:40:59;1.67;;;1.23;;
58972;SDS011;44750;52.040;7.472;2023-04-24T17:46:00;1.70;;;0.85;;
58972;SDS011;44750;52.040;7.472;2023-04-24T17:51:00;2.20;;;1.17;;
58972;SDS011;44750;52.040;7.472;2023-04-24T17:56:00;0.85;;;0.85;;
58972;SDS011;44750;52.040;7.472;2023-04-24T18:01:01;1.85;;;0.85;;
58972;SDS011;44750;52.040;7.472;2023-04-24T18:06:01;1.95;;;1.08;;
58972;SDS011;44750;52.040;7.472;2023-04-24T18:11:01;2.60;;;1.17;;
58972;SDS011;44750;52.040;7.472;2023-04-24T18:16:02;1.25;;;1.10;;
58972;SDS011;44750;52.040;7.472;2023-04-24T18:21:02;1.75;;;0.90;;
58972;SDS011;44750;52.040;7.472;2023-04-24T18:26:02;3.83;;;1.40;;
58972;SDS011;44750;52.040;7.472;2023-04-24T18:31:03;2.45;;;1.13;;
58972;SDS011;44750;52.040;7.472;2023-04-24T18:36:03;1.50;;;1.10;;
58972;SDS011;44750;52.040;7.472;2023-04-24T18:41:03;1.63;;;1.10;;
58972;SDS011;44750;52.040;7.472;2023-04-24T18:46:04;1.33;;;0.90;;
58972;SDS011;44750;52.040;7.472;2023-04-24T18:51:04;1.15;;;1.00;;
58972;SDS011;44750;52.040;7.472;2023-04-24T18:56:04;4.87;;;1.33;;
58972;SDS011;44750;52.040;7.472;2023-04-24T19:01:04;3.78;;;1.58;;
58972;SDS011;44750;52.040;7.472;2023-04-24T19:06:05;2.28;;;1.20;;
58972;SDS011;44750;52.040;7.472;2023-04-24T19:11:05;1.40;;;1.13;;
58972;SDS011;44750;52.040;7.472;2023-04-24T19:16:05;1.50;;;0.70;;
58972;SDS011;44750;52.040;7.472;2023-04-24T19:21:05;3.72;;;1.10;;
58972;SDS011;44750;52.040;7.472;2023-04-24T19:26:06;4.20;;;1.50;;
58972;SDS011;44750;52.040;7.472;2023-04-24T19:31:06;2.97;;;1.40;;
58972;SDS011;44750;52.040;7.472;2023-04-24T19:36:07;10.87;;;1.80;;
58972;SDS011;44750;52.040;7.472;2023-04-24T19:41:07;1.52;;;1.20;;
58972;SDS011;44750;52.040;7.472;2023-04-24T19:46:07;8.63;;;0.88;;
58972;SDS011;44750;52.040;7.472;2023-04-24T19:51:07;3.42;;;0.90;;
58972;SDS011;44750;52.040;7.472;2023-04-24T19:56:08;1.58;;;1.08;;
58972;SDS011;44750;52.040;7.472;2023-04-24T20:01:08;1.10;;;0.80;;
58972;SDS011;44750;52.040;7.472;2023-04-24T20:06:08;1.35;;;0.93;;
58972;SDS011;44750;52.040;7.472;2023-04-24T20:11:08;13.55;;;1.77;;
58972;SDS011;44750;52.040;7.472;2023-04-24T20:16:09;15.97;;;2.33;;
58972;SDS011;44750;52.040;7.472;2023-04-24T20:21:09;2.23;;;1.53;;
58972;SDS011;44750;52.040;7.472;2023-04-24T20:26:09;5.53;;;1.52;;
58972;SDS011;44750;52.040;7.472;2023-04-24T20:31:09;1.67;;;1.15;;
58972;SDS011;44750;52.040;7.472;2023-04-24T20:36:10;2.60;;;1.23;;
58972;SDS011;44750;52.040;7.472;2023-04-24T20:41:10;2.95;;;1.48;;
58972;SDS011;44750;52.040;7.472;2023-04-24T20:46:10;2.78;;;1.52;;
58972;SDS011;44750;52.040;7.472;2023-04-24T20:51:11;1.30;;;1.20;;
58972;SDS011;44750;52.040;7.472;2023-04-24T20:56:12;2.50;;;1.52;;
58972;SDS011;44750;52.040;7.472;2023-04-24T21:01:13;2.03;;;1.25;;
58972;SDS011;44750;52.040;7.472;2023-04-24T21:06:14;10.40;;;2.22;;
58972;SDS011;44750;52.040;7.472;2023-04-24T21:11:14;2.00;;;1.35;;
58972;SDS011;44750;52.040;7.472;2023-04-24T21:16:14;1.40;;;1.02;;
58972;SDS011;44750;52.040;7.472;2023-04-24T21:21:15;4.57;;;1.65;;
58972;SDS011;44750;52.040;7.472;2023-04-24T21:26:15;1.17;;;1.07;;
58972;SDS011;44750;52.040;7.472;2023-04-24T21:31:16;3.00;;;1.85;;
58972;SDS011;44750;52.040;7.472;2023-04-24T21:36:16;1.77;;;1.13;;
58972;SDS011;44750;52.040;7.472;2023-04-24T21:41:16;2.75;;;1.80;;
58972;SDS011;44750;52.040;7.472;2023-04-24T21:46:17;2.45;;;1.83;;
58972;SDS011;44750;52.040;7.472;2023-04-24T21:51:17;5.70;;;1.67;;
58972;SDS011;44750;52.040;7.472;2023-04-24T21:56:17;4.70;;;1.48;;
58972;SDS011;44750;52.040;7.472;2023-04-24T22:01:17;2.15;;;1.67;;
58972;SDS011;44750;52.040;7.472;2023-04-24T22:06:18;9.40;;;2.30;;
58972;SDS011;44750;52.040;7.472;2023-04-24T22:11:19;2.25;;;1.55;;
58972;SDS011;44750;52.040;7.472;2023-04-24T22:16:20;2.47;;;1.67;;
58972;SDS011;44750;52.040;7.472;2023-04-24T22:21:21;3.40;;;1.77;;
58972;SDS011;44750;52.040;7.472;2023-04-24T22:26:21;1.50;;;1.23;;
58972;SDS011;44750;52.040;7.472;2023-04-24T22:31:22;2.88;;;2.08;;
58972;SDS011;44750;52.040;7.472;2023-04-24T22:36:22;3.13;;;1.90;;
58972;SDS011;44750;52.040;7.472;2023-04-24T22:41:22;3.95;;;2.03;;
58972;SDS011;44750;52.040;7.472;2023-04-24T22:46:22;7.57;;;2.50;;
58972;SDS011;44750;52.040;7.472;2023-04-24T22:51:23;4.53;;;2.37;;
58972;SDS011;44750;52.040;7.472;2023-04-24T22:56:23;4.00;;;2.05;;
58972;SDS011;44750;52.040;7.472;2023-04-24T23:01:24;14.32;;;2.42;;
58972;SDS011;44750;52.040;7.472;2023-04-24T23:06:24;1.90;;;1.35;;
58972;SDS011;44750;52.040;7.472;2023-04-24T23:11:25;3.70;;;1.90;;
58972;SDS011;44750;52.040;7.472;2023-04-24T23:16:25;4.05;;;1.95;;
58972;SDS011;44750;52.040;7.472;2023-04-24T23:21:25;1.33;;;1.17;;
58972;SDS011;44750;52.040;7.472;2023-04-24T23:26:26;5.97;;;2.03;;
58972;SDS011;44750;52.040;7.472;2023-04-24T23:31:26;3.20;;;1.88;;
58972;SDS011;44750;52.040;7.472;2023-04-24T23:36:26;2.58;;;1.65;;
58972;SDS011;44750;52.040;7.472;2023-04-24T23:41:27;3.20;;;1.53;;
58972;SDS011;44750;52.040;7.472;2023-04-24T23:46:27;2.40;;;1.60;;
58972;SDS011;44750;52.040;7.472;2023-04-24T23:51:27;3.20;;;1.50;;
58972;SDS011;44750;52.040;7.472;2023-04-24T23:56:27;0.80;;;0.80;;
